Terminal Aerodrome Forecast
Issued by NWS

Home | Current Version | Previous Version | Text Only | Print | Product List | Glossary On
Versions: 1 2 3 4 5 6 7 8 9 10 11 12 13 14 15
000
FTPA31 PHFO 272052 AAB
TAFHJH
TAF AMD
PHJH 272052Z 2721/2818 05012KT P6SM FEW025 SCT045
     FM280500 07006KT P6SM FEW020 SCT045
      AMD NOT SKED AFT 280400=

USA.gov is the U.S. government's official web portal to all federal, state and local government web resources and services.